Time;durP1;ratioP1;P1;durP2;ratioP2;P2;SDS_P1;SDS_P2;PMS_P1;PMS_P2;Temp;Humidity;BMP_temperature;BMP_pressure;BME280_temperature;BME280_humidity;BME280_pressure;Samples;Min_cycle;Max_cycle;Signal;HPM_P1;HPM_P2
2023/10/26 00:01:24;;;;;;;1.30;0.50;;;12.40;99.90;;;;;;5069018;28;20208;-72
2023/10/26 00:03:49;;;;;;;1.40;0.53;;;12.40;99.90;;;;;;5069471;28;20189;-72
2023/10/26 00:06:15;;;;;;;1.53;0.70;;;12.50;99.90;;;;;;5069700;28;20179;-72
2023/10/26 00:08:40;;;;;;;1.17;0.47;;;12.40;99.90;;;;;;5067777;28;20210;-72
2023/10/26 00:11:06;;;;;;;2.53;0.80;;;12.40;99.90;;;;;;5067798;28;20568;-71
2023/10/26 00:13:32;;;;;;;1.40;0.57;;;12.40;99.90;;;;;;5069257;28;20181;-71
2023/10/26 00:15:57;;;;;;;0.87;0.40;;;12.40;99.90;;;;;;5067902;28;20183;-71
2023/10/26 00:18:23;;;;;;;1.00;0.60;;;12.40;99.90;;;;;;5069197;28;20220;-72
2023/10/26 00:20:54;;;;;;;0.90;0.50;;;12.40;99.90;;;;;;5067923;28;20189;-71
2023/10/26 00:23:20;;;;;;;1.53;0.60;;;12.40;99.90;;;;;;5069073;28;20269;-71
2023/10/26 00:25:46;;;;;;;1.23;0.80;;;12.40;99.90;;;;;;5069120;28;20492;-71
2023/10/26 00:28:11;;;;;;;2.73;0.70;;;12.40;99.90;;;;;;5067519;28;20221;-72
2023/10/26 00:30:37;;;;;;;2.10;0.77;;;12.40;99.90;;;;;;5069409;28;20198;-71
2023/10/26 00:33:03;;;;;;;1.23;0.60;;;12.40;99.90;;;;;;5067706;28;20190;-71
2023/10/26 00:35:29;;;;;;;3.13;0.60;;;12.40;99.90;;;;;;5067762;28;20183;-72
2023/10/26 00:37:54;;;;;;;0.80;0.50;;;12.40;99.90;;;;;;5068931;28;21130;-71
2023/10/26 00:40:20;;;;;;;7.20;1.60;;;12.40;99.90;;;;;;5069092;28;20319;-72
2023/10/26 00:42:46;;;;;;;1.63;0.67;;;12.40;99.90;;;;;;5068963;28;20265;-72
2023/10/26 00:45:11;;;;;;;2.20;0.50;;;12.40;99.90;;;;;;5068806;28;20195;-72
2023/10/26 00:47:37;;;;;;;1.43;0.60;;;12.40;99.90;;;;;;5067369;28;20216;-72
2023/10/26 00:50:03;;;;;;;1.30;0.50;;;12.40;99.90;;;;;;5068823;28;20718;-72
2023/10/26 00:52:29;;;;;;;1.43;0.57;;;12.30;99.90;;;;;;5068592;28;20557;-72
2023/10/26 00:54:55;;;;;;;2.43;0.67;;;12.30;99.90;;;;;;5068625;28;20441;-71
2023/10/26 00:57:24;;;;;;;3.70;0.60;;;12.30;99.90;;;;;;5068764;28;21091;-72
2023/10/26 00:59:51;;;;;;;1.73;0.60;;;12.20;99.90;;;;;;5067059;28;20419;-72
2023/10/26 01:02:18;;;;;;;2.80;0.90;;;12.20;99.90;;;;;;5067047;28;20431;-71
2023/10/26 01:04:44;;;;;;;1.23;0.60;;;12.20;99.90;;;;;;5067194;28;20425;-72
2023/10/26 01:07:10;;;;;;;2.30;0.60;;;12.10;99.90;;;;;;5067061;28;20462;-72
2023/10/26 01:09:36;;;;;;;1.17;0.60;;;12.10;99.90;;;;;;5068617;28;20190;-71
2023/10/26 01:12:01;;;;;;;1.77;0.60;;;12.10;99.90;;;;;;5068376;28;20270;-72
2023/10/26 01:14:27;;;;;;;2.00;0.60;;;12.00;99.90;;;;;;5068495;28;20431;-72
2023/10/26 01:16:54;;;;;;;2.30;0.70;;;12.00;99.90;;;;;;5068313;28;20218;-72
2023/10/26 01:19:20;;;;;;;1.27;0.90;;;12.00;99.90;;;;;;5066970;28;20848;-72
2023/10/26 01:21:51;;;;;;;0.80;0.40;;;11.90;99.90;;;;;;5068418;28;20428;-72
2023/10/26 01:24:17;;;;;;;2.57;0.60;;;11.90;99.90;;;;;;5068583;28;20189;-72
2023/10/26 01:26:42;;;;;;;2.40;0.77;;;11.90;99.90;;;;;;5067046;28;20471;-71
2023/10/26 01:29:08;;;;;;;1.43;0.50;;;11.90;99.90;;;;;;5068531;28;20428;-71
2023/10/26 01:31:34;;;;;;;1.00;0.60;;;11.90;99.90;;;;;;5068220;28;20188;-72
2023/10/26 01:33:59;;;;;;;1.83;0.60;;;11.80;99.90;;;;;;5068327;28;20247;-71
2023/10/26 01:36:25;;;;;;;1.70;0.53;;;11.70;99.90;;;;;;5068048;28;20223;-72
2023/10/26 01:38:51;;;;;;;1.77;0.67;;;11.80;99.90;;;;;;5068125;28;20212;-71
2023/10/26 01:41:17;;;;;;;1.10;0.60;;;11.80;99.90;;;;;;5068256;28;20416;-71
2023/10/26 01:43:42;;;;;;;1.30;0.50;;;11.70;99.90;;;;;;5068212;28;20496;-71
2023/10/26 01:46:08;;;;;;;1.93;0.53;;;11.70;99.90;;;;;;5068817;28;20202;-71
2023/10/26 01:48:34;;;;;;;1.40;0.60;;;11.70;99.90;;;;;;5066674;28;20202;-72
2023/10/26 01:50:59;;;;;;;5.40;0.60;;;11.70;99.90;;;;;;5068383;28;20297;-71
2023/10/26 01:53:26;;;;;;;1.73;0.60;;;11.70;99.90;;;;;;5049967;28;20190;-71
2023/10/26 01:55:52;;;;;;;2.10;0.60;;;11.70;99.90;;;;;;5066588;28;20201;-71
2023/10/26 01:58:17;;;;;;;2.73;0.67;;;11.70;99.90;;;;;;5067881;28;20848;-71
2023/10/26 02:00:43;;;;;;;1.20;0.50;;;11.70;99.90;;;;;;5068121;28;20204;-71
2023/10/26 02:03:09;;;;;;;2.23;0.50;;;11.70;99.90;;;;;;5067990;28;20931;-70
2023/10/26 02:05:34;;;;;;;2.17;0.63;;;11.60;99.90;;;;;;5068164;28;20276;-72
2023/10/26 02:08:00;;;;;;;1.77;0.70;;;11.70;99.90;;;;;;5067919;28;20216;-71
2023/10/26 02:10:29;;;;;;;1.70;0.50;;;11.60;99.90;;;;;;5068101;28;20198;-71
2023/10/26 02:12:57;;;;;;;1.63;0.50;;;11.60;99.90;;;;;;5067794;28;20196;-71
2023/10/26 02:15:23;;;;;;;3.10;0.50;;;11.60;99.90;;;;;;5067921;28;21072;-71
2023/10/26 02:17:49;;;;;;;2.40;0.80;;;11.60;99.90;;;;;;5067745;28;20472;-72
2023/10/26 02:20:15;;;;;;;3.17;0.60;;;11.60;99.90;;;;;;5068032;28;20422;-71
2023/10/26 02:22:41;;;;;;;2.13;0.50;;;11.50;99.90;;;;;;5067967;28;20276;-72
2023/10/26 02:25:07;;;;;;;4.50;0.60;;;11.50;99.90;;;;;;5070204;28;20423;-72
2023/10/26 02:27:32;;;;;;;1.17;0.40;;;11.50;99.90;;;;;;5071335;28;20332;-71
2023/10/26 02:29:58;;;;;;;3.53;0.60;;;11.50;99.90;;;;;;5071315;28;20516;-71
2023/10/26 02:32:24;;;;;;;1.27;0.43;;;11.50;99.90;;;;;;5053554;28;20191;-71
2023/10/26 02:34:49;;;;;;;1.13;0.47;;;11.50;99.90;;;;;;5071139;28;20688;-71
2023/10/26 02:37:17;;;;;;;0.83;0.47;;;11.40;99.90;;;;;;5071014;28;20553;-71
2023/10/26 02:39:43;;;;;;;2.40;0.50;;;11.40;99.90;;;;;;5053247;28;20225;-72
2023/10/26 02:42:09;;;;;;;2.63;0.70;;;11.30;99.90;;;;;;5069825;28;20456;-72
2023/10/26 02:44:35;;;;;;;1.77;0.47;;;11.40;99.90;;;;;;5071552;28;20475;-72
2023/10/26 02:47:00;;;;;;;1.57;0.77;;;11.30;99.90;;;;;;5069547;28;20213;-71
2023/10/26 02:49:26;;;;;;;1.20;0.50;;;11.40;99.90;;;;;;5069907;28;21038;-71
2023/10/26 02:51:52;;;;;;;1.60;0.70;;;11.30;99.90;;;;;;5071049;28;20197;-71
2023/10/26 02:54:17;;;;;;;2.40;0.50;;;11.30;99.90;;;;;;5071201;28;20193;-71
2023/10/26 02:56:43;;;;;;;1.30;0.40;;;11.30;99.90;;;;;;5070748;28;20215;-71
2023/10/26 02:59:08;;;;;;;2.43;0.70;;;11.30;99.90;;;;;;5069323;28;20239;-72
2023/10/26 03:01:35;;;;;;;1.77;0.50;;;11.30;99.90;;;;;;5070655;28;20191;-71
2023/10/26 03:04:04;;;;;;;0.80;0.50;;;11.20;99.90;;;;;;5069337;28;20190;-71
2023/10/26 03:06:37;;;;;;;2.07;0.63;;;11.20;99.90;;;;;;5070648;28;20908;-71
2023/10/26 03:09:03;;;;;;;1.80;0.63;;;11.20;99.90;;;;;;5069225;28;20416;-71
2023/10/26 03:11:28;;;;;;;2.47;0.57;;;11.20;99.90;;;;;;5052475;28;20451;-71
2023/10/26 03:13:54;;;;;;;2.30;0.70;;;11.20;99.90;;;;;;5070654;28;20424;-71
2023/10/26 03:16:19;;;;;;;1.17;0.67;;;11.20;99.90;;;;;;5069034;28;20264;-72
2023/10/26 03:18:45;;;;;;;2.93;0.60;;;11.20;99.90;;;;;;5069078;28;20757;-71
2023/10/26 03:21:12;;;;;;;2.63;0.73;;;11.20;99.90;;;;;;5069025;28;20240;-71
2023/10/26 03:23:38;;;;;;;1.73;0.67;;;11.20;99.90;;;;;;5068934;28;20617;-72
2023/10/26 03:26:09;;;;;;;2.90;0.80;;;11.20;99.90;;;;;;5070147;28;20435;-71
2023/10/26 03:28:34;;;;;;;1.33;0.70;;;11.10;99.90;;;;;;5070446;28;20213;-72
2023/10/26 03:31:00;;;;;;;1.50;0.60;;;11.10;99.90;;;;;;5068798;28;20433;-72
2023/10/26 03:33:26;;;;;;;2.27;0.60;;;11.10;99.90;;;;;;5068977;28;20273;-72
2023/10/26 03:35:51;;;;;;;1.43;0.50;;;11.10;99.90;;;;;;5052080;28;20202;-72
2023/10/26 03:38:17;;;;;;;1.03;0.60;;;11.10;99.90;;;;;;5068535;28;20217;-71
2023/10/26 03:40:42;;;;;;;1.87;0.80;;;11.10;99.90;;;;;;5069928;28;20181;-72
2023/10/26 03:43:08;;;;;;;0.90;0.40;;;11.20;99.90;;;;;;5052017;28;20794;-72
2023/10/26 03:45:34;;;;;;;2.50;0.50;;;11.10;99.90;;;;;;5069904;28;20190;-72
2023/10/26 03:48:00;;;;;;;2.07;0.50;;;11.20;99.90;;;;;;5068656;28;20938;-71
2023/10/26 03:50:25;;;;;;;2.00;0.47;;;11.10;99.90;;;;;;5052036;28;20193;-71
2023/10/26 03:52:51;;;;;;;2.00;0.50;;;11.10;99.90;;;;;;5069904;28;20240;-72
2023/10/26 03:55:16;;;;;;;1.63;0.60;;;11.10;99.90;;;;;;5069747;28;20186;-72
2023/10/26 03:57:43;;;;;;;2.20;0.60;;;11.20;99.90;;;;;;5069504;28;20970;-71
2023/10/26 04:00:09;;;;;;;1.30;0.60;;;11.00;99.90;;;;;;5051767;28;20657;-72
2023/10/26 04:02:35;;;;;;;3.03;0.90;;;11.00;99.90;;;;;;5069853;28;20415;-71
2023/10/26 04:05:00;;;;;;;0.90;0.50;;;10.80;99.90;;;;;;5070041;28;20440;-71
2023/10/26 04:07:27;;;;;;;4.07;0.40;;;10.60;99.90;;;;;;5068772;28;20267;-71
2023/10/26 04:09:53;;;;;;;3.70;0.90;;;10.50;99.90;;;;;;5070010;28;20230;-71
2023/10/26 04:12:18;;;;;;;3.10;0.80;;;10.40;99.90;;;;;;5070142;28;20423;-71
2023/10/26 04:14:44;;;;;;;2.97;0.83;;;10.50;99.90;;;;;;5070221;28;20193;-71
2023/10/26 04:17:12;;;;;;;3.00;0.70;;;10.60;99.90;;;;;;5069984;28;20228;-71
2023/10/26 04:19:37;;;;;;;1.10;0.57;;;10.50;99.90;;;;;;5070048;28;20178;-71
2023/10/26 04:22:05;;;;;;;1.20;0.60;;;10.30;99.90;;;;;;5068365;28;20424;-71
2023/10/26 04:24:31;;;;;;;2.33;0.63;;;10.20;99.90;;;;;;5069682;28;20210;-71
2023/10/26 04:26:57;;;;;;;0.80;0.43;;;10.10;99.90;;;;;;5067277;28;20512;-71
2023/10/26 04:29:22;;;;;;;2.03;1.10;;;10.10;99.90;;;;;;5067976;28;20484;-71
2023/10/26 04:31:48;;;;;;;4.13;0.70;;;10.10;99.90;;;;;;5066649;28;20197;-71
2023/10/26 04:34:15;;;;;;;1.10;0.50;;;10.10;99.90;;;;;;5066525;28;20190;-70
2023/10/26 04:36:40;;;;;;;5.00;0.67;;;10.00;99.90;;;;;;5049960;28;20208;-70
2023/10/26 04:39:09;;;;;;;2.87;0.50;;;10.00;99.90;;;;;;5049550;28;20427;-71
2023/10/26 04:41:35;;;;;;;2.27;0.50;;;10.00;99.90;;;;;;5067776;28;20203;-71
2023/10/26 04:44:01;;;;;;;2.30;0.70;;;10.00;99.90;;;;;;5067584;28;20527;-71
2023/10/26 04:46:27;;;;;;;1.03;0.70;;;10.10;99.90;;;;;;5067411;28;20520;-70
2023/10/26 04:48:53;;;;;;;1.00;0.57;;;10.20;99.90;;;;;;5067486;28;20455;-72
2023/10/26 04:51:18;;;;;;;1.10;0.60;;;10.40;99.90;;;;;;5067796;28;20193;-71
2023/10/26 04:53:44;;;;;;;1.63;0.80;;;10.50;99.90;;;;;;5067509;28;20192;-71
2023/10/26 04:56:11;;;;;;;1.10;0.50;;;10.60;99.90;;;;;;5066124;28;20654;-71
2023/10/26 04:58:38;;;;;;;2.60;0.53;;;10.70;99.90;;;;;;5065943;28;20336;-71
2023/10/26 05:01:04;;;;;;;3.07;0.60;;;10.80;99.90;;;;;;5066021;28;20513;-70
2023/10/26 05:03:30;;;;;;;3.83;0.83;;;10.90;99.90;;;;;;5067539;28;20407;-72
2023/10/26 05:05:55;;;;;;;1.57;0.63;;;10.90;99.90;;;;;;5067787;28;20418;-71
2023/10/26 05:08:21;;;;;;;0.83;0.60;;;10.70;99.90;;;;;;5049767;28;20231;-71
2023/10/26 05:10:47;;;;;;;1.70;0.77;;;10.70;99.90;;;;;;5067993;28;20662;-70
2023/10/26 05:13:12;;;;;;;6.30;0.70;;;10.80;99.90;;;;;;5067983;28;20196;-70
2023/10/26 05:15:38;;;;;;;1.93;0.77;;;10.80;99.90;;;;;;5067549;28;20651;-71
2023/10/26 05:18:04;;;;;;;1.20;0.60;;;10.70;99.90;;;;;;5067060;28;20597;-71
2023/10/26 05:20:32;;;;;;;3.47;0.60;;;10.70;99.90;;;;;;5067148;28;20176;-71
2023/10/26 05:22:58;;;;;;;2.23;0.80;;;10.90;99.90;;;;;;5067197;28;20989;-71
2023/10/26 05:25:24;;;;;;;6.53;0.57;;;10.70;99.90;;;;;;5067190;28;21012;-70
2023/10/26 05:27:50;;;;;;;3.47;0.80;;;10.70;99.90;;;;;;5065395;28;20581;-70
2023/10/26 05:30:16;;;;;;;1.00;0.70;;;10.80;99.90;;;;;;5067097;28;20803;-71
2023/10/26 05:32:42;;;;;;;4.03;0.80;;;10.70;99.90;;;;;;5067010;28;20447;-70
2023/10/26 05:35:07;;;;;;;2.40;0.90;;;10.70;99.90;;;;;;5065449;28;20213;-70
2023/10/26 05:37:34;;;;;;;3.77;1.17;;;10.70;99.90;;;;;;5066975;28;20708;-70
2023/10/26 05:39:59;;;;;;;1.03;0.60;;;10.70;99.90;;;;;;5067244;28;20189;-70
2023/10/26 05:42:25;;;;;;;1.60;0.70;;;10.80;99.90;;;;;;5066990;28;21259;-70
2023/10/26 05:44:53;;;;;;;1.73;0.53;;;10.70;99.90;;;;;;5067303;28;20262;-70
2023/10/26 05:47:19;;;;;;;2.43;0.80;;;10.70;99.90;;;;;;5066831;28;20620;-70
2023/10/26 05:49:45;;;;;;;1.10;0.80;;;10.80;99.90;;;;;;5065521;28;20501;-70
2023/10/26 05:52:10;;;;;;;2.00;0.70;;;10.70;99.90;;;;;;5066710;28;20506;-70
2023/10/26 05:54:36;;;;;;;1.53;0.70;;;10.70;99.90;;;;;;5066656;28;20187;-70
2023/10/26 05:57:02;;;;;;;4.03;0.80;;;10.70;99.90;;;;;;5066570;28;20240;-70
2023/10/26 05:59:28;;;;;;;2.80;0.73;;;10.60;99.90;;;;;;5068392;28;20657;-70
2023/10/26 06:01:53;;;;;;;1.77;0.90;;;10.50;99.90;;;;;;5070620;28;20523;-70
2023/10/26 06:04:19;;;;;;;2.93;0.97;;;10.60;99.90;;;;;;5070640;28;20179;-69
2023/10/26 06:06:45;;;;;;;3.00;0.83;;;10.70;99.90;;;;;;5070353;28;20749;-71
2023/10/26 06:09:10;;;;;;;3.90;0.80;;;10.50;99.90;;;;;;5070385;28;20262;-71
2023/10/26 06:11:37;;;;;;;5.43;0.60;;;10.50;99.90;;;;;;5068836;28;20197;-71
2023/10/26 06:14:03;;;;;;;0.90;0.60;;;10.50;99.90;;;;;;5070244;28;20178;-71
2023/10/26 06:16:29;;;;;;;1.57;0.77;;;10.60;99.90;;;;;;5068614;28;20431;-70
2023/10/26 06:18:54;;;;;;;2.43;0.63;;;10.60;99.90;;;;;;5068795;28;20801;-70
2023/10/26 06:21:20;;;;;;;1.77;0.60;;;10.60;99.90;;;;;;5068728;28;20205;-70
2023/10/26 06:23:46;;;;;;;1.43;0.70;;;10.60;99.90;;;;;;5070191;28;20527;-71
2023/10/26 06:26:11;;;;;;;1.57;0.83;;;10.60;99.90;;;;;;5068704;28;20424;-70
2023/10/26 06:28:37;;;;;;;1.47;0.73;;;10.60;99.90;;;;;;5070022;28;20213;-71
2023/10/26 06:31:10;;;;;;;1.00;0.70;;;10.50;99.90;;;;;;5068350;28;20253;-70
2023/10/26 06:33:37;;;;;;;5.20;0.90;;;10.50;99.90;;;;;;5070058;28;20192;-70
2023/10/26 06:36:03;;;;;;;2.20;0.80;;;10.60;99.90;;;;;;5070062;28;20439;-71
2023/10/26 06:38:29;;;;;;;2.83;0.83;;;10.50;99.90;;;;;;5069630;28;20468;-71
2023/10/26 06:40:54;;;;;;;3.50;1.10;;;10.60;99.90;;;;;;5069723;28;20968;-70
2023/10/26 06:43:22;;;;;;;3.73;0.67;;;10.60;99.90;;;;;;5068314;28;20238;-70
2023/10/26 06:45:48;;;;;;;3.83;1.13;;;10.70;99.90;;;;;;5069678;28;20173;-70
2023/10/26 06:48:13;;;;;;;2.30;0.63;;;10.70;99.90;;;;;;5069624;28;20446;-71
2023/10/26 06:50:39;;;;;;;2.70;0.87;;;10.80;99.90;;;;;;5069596;28;20666;-72
2023/10/26 06:53:05;;;;;;;0.97;0.63;;;10.80;99.90;;;;;;5068332;28;20197;-71
2023/10/26 06:55:33;;;;;;;1.20;0.60;;;10.80;99.90;;;;;;5068145;28;20185;-71
2023/10/26 06:57:59;;;;;;;2.33;0.80;;;10.90;99.90;;;;;;5069414;28;20252;-70
2023/10/26 07:00:25;;;;;;;1.97;0.80;;;10.90;99.90;;;;;;5069737;28;20537;-70
2023/10/26 07:02:50;;;;;;;1.53;0.60;;;11.00;99.90;;;;;;5067810;28;20206;-70
2023/10/26 07:05:16;;;;;;;3.00;0.70;;;11.00;99.90;;;;;;5069353;28;21014;-70
2023/10/26 07:07:42;;;;;;;4.93;0.80;;;11.00;99.90;;;;;;5069289;28;20203;-70
2023/10/26 07:10:14;;;;;;;1.23;0.90;;;11.00;99.90;;;;;;5067516;28;20187;-70
2023/10/26 07:12:40;;;;;;;1.57;0.70;;;11.10;99.90;;;;;;5067972;28;20213;-70
2023/10/26 07:15:07;;;;;;;3.03;0.60;;;11.10;99.90;;;;;;5069342;28;20411;-70
2023/10/26 07:17:34;;;;;;;0.80;0.50;;;11.10;99.90;;;;;;5069097;28;20534;-70
2023/10/26 07:20:01;;;;;;;4.73;0.77;;;11.20;99.90;;;;;;5067449;28;20811;-70
2023/10/26 07:22:27;;;;;;;2.30;0.80;;;11.20;99.90;;;;;;5067669;28;20419;-70
2023/10/26 07:24:52;;;;;;;2.00;0.70;;;11.30;99.90;;;;;;5069243;28;20498;-70
2023/10/26 07:27:19;;;;;;;1.87;0.70;;;11.30;99.90;;;;;;5068914;28;20240;-71
2023/10/26 07:29:46;;;;;;;0.90;0.70;;;11.30;99.90;;;;;;5069127;28;20181;-70
2023/10/26 07:32:12;;;;;;;1.23;0.70;;;11.40;99.90;;;;;;5069019;28;20550;-70
2023/10/26 07:34:37;;;;;;;1.10;0.50;;;11.30;99.90;;;;;;5068990;28;20437;-70
2023/10/26 07:37:03;;;;;;;1.27;0.47;;;11.30;99.90;;;;;;5068867;28;20480;-70
2023/10/26 07:39:33;;;;;;;3.17;0.60;;;11.30;99.90;;;;;;5069086;28;20188;-70
2023/10/26 07:41:58;;;;;;;1.37;0.70;;;11.40;99.90;;;;;;5068658;28;20247;-70
2023/10/26 07:44:24;;;;;;;1.60;0.60;;;11.40;99.90;;;;;;5069011;28;20511;-71
2023/10/26 07:46:49;;;;;;;0.93;0.60;;;11.50;99.90;;;;;;5068859;28;20826;-71
2023/10/26 07:49:15;;;;;;;6.73;0.90;;;11.60;99.90;;;;;;5067801;28;20187;-70
2023/10/26 07:51:40;;;;;;;2.07;0.50;;;11.60;99.90;;;;;;5069024;28;20179;-70
2023/10/26 07:54:06;;;;;;;1.30;0.63;;;11.60;99.90;;;;;;5069314;28;20187;-71
2023/10/26 07:56:32;;;;;;;1.00;0.60;;;11.60;99.90;;;;;;5068827;28;20232;-71
2023/10/26 07:58:58;;;;;;;1.83;0.50;;;11.70;99.90;;;;;;5067394;28;20697;-70
2023/10/26 08:01:24;;;;;;;0.93;0.50;;;11.70;99.90;;;;;;5068615;28;20746;-71
2023/10/26 08:03:49;;;;;;;4.60;0.57;;;11.70;99.90;;;;;;5068921;28;20418;-71
2023/10/26 08:06:15;;;;;;;0.70;0.40;;;11.70;99.90;;;;;;5068985;28;20190;-71
2023/10/26 08:08:41;;;;;;;4.80;0.67;;;11.60;99.90;;;;;;5067450;28;20211;-71
2023/10/26 08:11:11;;;;;;;1.10;0.70;;;11.70;99.90;;;;;;5069205;28;20182;-71
2023/10/26 08:13:37;;;;;;;0.80;0.60;;;11.70;99.90;;;;;;5069464;28;20543;-69
2023/10/26 08:16:03;;;;;;;1.00;0.60;;;11.70;99.90;;;;;;5069328;28;20471;-70
2023/10/26 08:18:29;;;;;;;2.40;0.60;;;11.70;99.90;;;;;;5069260;28;20475;-70
2023/10/26 08:20:54;;;;;;;1.53;0.60;;;11.70;99.90;;;;;;5069165;28;20182;-70
2023/10/26 08:23:20;;;;;;;1.00;0.60;;;11.70;99.90;;;;;;5068572;28;20459;-70
2023/10/26 08:25:47;;;;;;;0.90;0.50;;;11.70;99.90;;;;;;5069293;28;20174;-70
2023/10/26 08:28:13;;;;;;;1.00;0.60;;;11.60;99.90;;;;;;5067727;28;20229;-70
2023/10/26 08:30:39;;;;;;;0.80;0.57;;;11.60;99.90;;;;;;5067514;28;20759;-70
2023/10/26 08:33:05;;;;;;;1.00;0.70;;;11.60;99.90;;;;;;5068630;28;20470;-71
2023/10/26 08:35:31;;;;;;;2.70;0.60;;;11.50;99.90;;;;;;5067452;28;20198;-70
2023/10/26 08:37:56;;;;;;;0.90;0.50;;;11.50;99.90;;;;;;5066884;28;20218;-70
2023/10/26 08:40:22;;;;;;;0.90;0.60;;;11.50;99.90;;;;;;5067031;28;20418;-70
2023/10/26 08:42:48;;;;;;;0.80;0.50;;;11.50;99.90;;;;;;5068154;28;20178;-69
2023/10/26 08:45:24;;;;;;;0.90;0.50;;;11.60;99.90;;;;;;5068327;28;20181;-70
2023/10/26 08:47:50;;;;;;;0.93;0.80;;;11.60;99.90;;;;;;5068130;28;20200;-71
2023/10/26 08:50:21;;;;;;;1.00;0.60;;;11.50;99.90;;;;;;5066807;28;20417;-71
2023/10/26 08:52:47;;;;;;;0.80;0.50;;;11.60;99.90;;;;;;5067984;28;20493;-71
2023/10/26 08:55:13;;;;;;;1.97;0.53;;;11.60;99.90;;;;;;5068205;28;20995;-69
2023/10/26 08:57:51;;;;;;;0.73;0.40;;;11.70;99.90;;;;;;5068300;28;20506;-71
2023/10/26 09:00:18;;;;;;;0.80;0.67;;;11.70;99.90;;;;;;5067171;28;20293;-71
2023/10/26 09:02:48;;;;;;;1.37;1.07;;;11.80;99.90;;;;;;5068251;28;20446;-71
2023/10/26 09:05:15;;;;;;;1.10;0.50;;;11.80;99.90;;;;;;5068228;28;20433;-71
2023/10/26 09:07:40;;;;;;;1.00;0.40;;;11.70;99.90;;;;;;5066893;28;20483;-71
2023/10/26 09:10:07;;;;;;;0.70;0.40;;;11.80;99.90;;;;;;5068090;28;20440;-71
2023/10/26 09:12:32;;;;;;;0.70;0.40;;;11.90;99.90;;;;;;5068201;28;20279;-71
2023/10/26 09:15:04;;;;;;;1.20;0.40;;;11.90;99.90;;;;;;5066646;28;20900;-71
2023/10/26 09:17:30;;;;;;;1.43;0.50;;;11.90;99.90;;;;;;5067831;28;20240;-72
2023/10/26 09:19:57;;;;;;;0.70;0.40;;;11.90;99.90;;;;;;5068080;28;20796;-71
2023/10/26 09:22:39;;;;;;;2.50;0.40;;;11.90;99.90;;;;;;5067997;28;20418;-71
2023/10/26 09:25:10;;;;;;;0.80;0.50;;;11.90;99.90;;;;;;5067822;28;20400;-70
2023/10/26 09:27:36;;;;;;;8.77;0.43;;;11.90;99.90;;;;;;5067740;28;20500;-70
2023/10/26 09:30:03;;;;;;;0.90;0.50;;;11.90;99.90;;;;;;5068043;28;20432;-70
2023/10/26 09:32:36;;;;;;;0.80;0.50;;;11.90;99.90;;;;;;5067710;28;20429;-70
2023/10/26 09:35:03;;;;;;;1.03;0.60;;;11.90;99.90;;;;;;5070276;28;20444;-71
2023/10/26 09:37:29;;;;;;;0.90;0.40;;;11.90;99.90;;;;;;5071314;28;20486;-72
2023/10/26 09:39:57;;;;;;;3.17;0.83;;;11.90;99.90;;;;;;5071428;28;20452;-70
2023/10/26 09:42:24;;;;;;;0.80;0.50;;;11.90;99.90;;;;;;5069987;28;20431;-70
2023/10/26 09:44:51;;;;;;;1.00;0.60;;;11.90;99.90;;;;;;5069842;28;20415;-70
2023/10/26 09:47:17;;;;;;;0.80;0.60;;;11.90;99.90;;;;;;5071318;28;20441;-70
2023/10/26 09:49:42;;;;;;;0.77;0.40;;;11.90;99.90;;;;;;5070028;28;20419;-71
2023/10/26 09:52:08;;;;;;;2.13;0.60;;;11.90;99.90;;;;;;5071351;28;21053;-70
2023/10/26 09:54:37;;;;;;;1.57;0.87;;;11.90;99.90;;;;;;5071133;28;20428;-70
2023/10/26 09:57:24;;;;;;;0.80;0.40;;;11.90;99.90;;;;;;5070642;28;20211;-70
2023/10/26 09:59:52;;;;;;;0.90;0.60;;;11.90;99.90;;;;;;5071049;28;20412;-71
2023/10/26 10:02:19;;;;;;;2.53;1.63;;;12.00;99.90;;;;;;5069971;28;20970;-70
2023/10/26 10:04:45;;;;;;;0.90;0.70;;;12.00;99.90;;;;;;5071216;28;20426;-71
2023/10/26 10:07:40;;;;;;;1.00;0.67;;;12.10;99.90;;;;;;5069670;28;20499;-71
2023/10/26 10:10:08;;;;;;;0.90;0.70;;;12.20;99.90;;;;;;5070741;28;20413;-71
2023/10/26 10:12:36;;;;;;;1.37;0.60;;;12.20;99.90;;;;;;5070948;28;20423;-71
2023/10/26 10:15:09;;;;;;;0.93;0.83;;;12.30;99.90;;;;;;5070826;28;20404;-71
2023/10/26 10:17:44;;;;;;;1.63;0.80;;;12.50;99.90;;;;;;5069380;28;21116;-71
2023/10/26 10:20:18;;;;;;;1.40;0.80;;;12.60;99.90;;;;;;5070698;28;20545;-71
2023/10/26 10:22:44;;;;;;;9.63;2.63;;;12.70;99.90;;;;;;5070950;28;20438;-71
2023/10/26 10:25:10;;;;;;;16.30;5.40;;;12.90;99.90;;;;;;5069226;28;20452;-71
2023/10/26 10:27:37;;;;;;;6.90;2.60;;;13.10;99.90;;;;;;5070553;28;20218;-71
2023/10/26 10:30:10;;;;;;;4.80;3.27;;;13.10;99.90;;;;;;5069055;28;20436;-71
2023/10/26 10:32:45;;;;;;;6.43;3.17;;;13.00;99.90;;;;;;5070841;28;20421;-71
2023/10/26 10:35:12;;;;;;;5.00;4.20;;;12.80;99.90;;;;;;5070713;28;20996;-70
2023/10/26 10:37:38;;;;;;;3.57;3.23;;;12.80;99.90;;;;;;5070222;28;20496;-69
2023/10/26 10:40:16;;;;;;;3.60;3.30;;;12.90;99.90;;;;;;5070310;28;20854;-70
2023/10/26 10:42:50;;;;;;;5.63;3.00;;;13.00;99.90;;;;;;5069157;28;20190;-70
2023/10/26 10:45:19;;;;;;;3.40;3.10;;;13.00;99.90;;;;;;5069504;28;20420;-70
2023/10/26 10:47:49;;;;;;;3.33;2.77;;;13.00;99.90;;;;;;5070333;28;20449;-70
2023/10/26 10:50:25;;;;;;;7.80;3.83;;;13.10;99.90;;;;;;5070213;28;20448;-71
2023/10/26 10:52:53;;;;;;;2.27;2.07;;;13.20;99.90;;;;;;5052611;28;20425;-71
2023/10/26 10:55:20;;;;;;;2.60;1.97;;;13.30;99.90;;;;;;5070220;28;20421;-71
2023/10/26 10:57:59;;;;;;;2.53;2.33;;;13.50;99.90;;;;;;5069928;28;21003;-71
2023/10/26 11:00:26;;;;;;;2.47;1.40;;;13.60;99.90;;;;;;5051865;28;20425;-71
2023/10/26 11:02:56;;;;;;;0.83;0.53;;;13.60;99.90;;;;;;5070153;28;20802;-71
2023/10/26 11:05:40;;;;;;;1.27;0.57;;;13.90;99.90;;;;;;5070183;28;20785;-71
2023/10/26 11:08:07;;;;;;;2.23;0.87;;;14.00;99.90;;;;;;5068699;28;20448;-71
2023/10/26 11:10:34;;;;;;;2.50;0.93;;;14.30;99.90;;;;;;5070032;28;20435;-72
2023/10/26 11:12:59;;;;;;;1.00;0.70;;;14.40;99.90;;;;;;5070083;28;20504;-71
2023/10/26 11:15:38;;;;;;;2.20;0.67;;;14.40;99.90;;;;;;5069907;28;21026;-71
2023/10/26 11:18:06;;;;;;;2.50;0.80;;;14.40;99.90;;;;;;5069741;28;20219;-72
2023/10/26 11:20:37;;;;;;;1.23;0.80;;;14.50;99.90;;;;;;5069801;28;20452;-71
2023/10/26 11:23:05;;;;;;;1.43;0.73;;;14.50;99.90;;;;;;5069640;28;20496;-71
2023/10/26 11:25:30;;;;;;;1.93;0.60;;;14.40;99.90;;;;;;5069433;28;20504;-70
2023/10/26 11:27:56;;;;;;;3.10;0.90;;;14.50;99.90;;;;;;5069317;28;21200;-70
2023/10/26 11:30:22;;;;;;;2.27;0.93;;;14.40;99.90;;;;;;5067702;28;20184;-70
2023/10/26 11:32:47;;;;;;;2.03;0.80;;;14.40;99.90;;;;;;5067867;28;20187;-70
2023/10/26 11:35:15;;;;;;;6.10;1.73;;;14.40;99.90;;;;;;5069274;28;20186;-71
2023/10/26 11:37:47;;;;;;;2.60;1.00;;;14.40;99.90;;;;;;5068937;28;20222;-71
2023/10/26 11:40:14;;;;;;;4.23;0.93;;;14.40;99.90;;;;;;5069064;28;20495;-70
2023/10/26 11:42:56;;;;;;;4.53;1.37;;;14.40;99.90;;;;;;5068909;28;20402;-70
2023/10/26 11:45:24;;;;;;;5.93;1.97;;;14.30;99.90;;;;;;5069235;28;21274;-70
2023/10/26 11:47:59;;;;;;;1.07;0.97;;;14.30;99.90;;;;;;5069073;28;20437;-71
2023/10/26 11:50:34;;;;;;;2.90;1.77;;;14.30;99.90;;;;;;5069008;28;20417;-71
2023/10/26 11:53:02;;;;;;;6.03;3.30;;;14.30;99.90;;;;;;5068872;28;20418;-70
2023/10/26 11:55:31;;;;;;;4.30;3.57;;;14.30;99.90;;;;;;5067309;28;20519;-71
2023/10/26 11:57:58;;;;;;;5.43;3.77;;;14.60;99.90;;;;;;5068000;28;20465;-71
2023/10/26 12:00:25;;;;;;;4.37;3.60;;;14.50;99.90;;;;;;5067651;28;20500;-70
2023/10/26 12:02:54;;;;;;;4.50;4.00;;;14.80;99.90;;;;;;5069676;28;20737;-70
2023/10/26 12:05:20;;;;;;;5.70;3.97;;;14.80;99.90;;;;;;5069093;28;20766;-70
2023/10/26 12:07:46;;;;;;;4.00;3.70;;;14.60;99.90;;;;;;5068709;28;20436;-70
2023/10/26 12:10:13;;;;;;;6.83;3.13;;;14.60;99.90;;;;;;5068746;28;20185;-70
2023/10/26 12:12:39;;;;;;;3.60;3.30;;;14.50;99.90;;;;;;5068628;28;20420;-69
2023/10/26 12:15:05;;;;;;;5.83;4.53;;;14.30;99.90;;;;;;5068502;28;20415;-69
2023/10/26 12:17:31;;;;;;;4.10;3.70;;;14.30;99.90;;;;;;5068120;28;20280;-71
2023/10/26 12:19:57;;;;;;;5.37;3.23;;;14.30;99.90;;;;;;5068291;28;20410;-69
2023/10/26 12:22:22;;;;;;;4.83;3.13;;;14.50;99.90;;;;;;5050214;28;20187;-70
2023/10/26 12:24:48;;;;;;;5.30;3.60;;;14.70;99.90;;;;;;5068120;28;20184;-70
2023/10/26 12:27:16;;;;;;;4.13;2.27;;;15.00;99.90;;;;;;5066607;28;20224;-71
2023/10/26 12:29:46;;;;;;;6.20;2.23;;;15.10;99.90;;;;;;5068217;28;20922;-71
2023/10/26 12:32:12;;;;;;;3.70;2.40;;;15.40;99.90;;;;;;5068148;28;20428;-70
2023/10/26 12:34:38;;;;;;;5.30;2.80;;;15.70;99.90;;;;;;5068090;28;20416;-71
2023/10/26 12:37:04;;;;;;;3.23;2.50;;;15.70;99.90;;;;;;5067899;28;20479;-70
2023/10/26 12:39:30;;;;;;;3.83;2.90;;;15.70;99.90;;;;;;5067834;28;20507;-71
2023/10/26 12:41:56;;;;;;;6.03;3.07;;;15.80;99.90;;;;;;5067970;28;20418;-71
2023/10/26 12:44:24;;;;;;;5.60;2.90;;;15.90;99.90;;;;;;5066363;28;20850;-70
2023/10/26 12:46:50;;;;;;;3.87;2.27;;;15.80;99.90;;;;;;5067669;28;20175;-70